Saturday, January 20, 2018, 10:04 AM EST
Back to Local

KBML, Berlin Municipal Airport

Location: Milan, NH, United States Lat: 44.583
Local Time: 10:04 AM EST (15:04 GMT) Lon: -71.183
Time Zone: US/Eastern Elev: 1158 ft

Show me the last for .
Show Decoded

2018-01-20 09:52 METAR KBML 201452Z AUTO 10SM SCT040 03/M04 A2954 RMK AO2 SLP017 T00281044 51014
                 =
2018-01-20 08:52 METAR KBML 201352Z AUTO VRB05KT 10SM CLR 01/M05 A2953 RMK AO2 SLP013 T00111050 =
2018-01-20 07:52 METAR KBML 201252Z AUTO 00000KT 5SM BR CLR M08/M09 A2952 RMK AO2 SLP016
                 T10781089 =
2018-01-20 06:52 METAR KBML 201152Z AUTO 34003KT 7SM CLR M05/M07 A2950 RMK AO2 SLP007 60000
                 T10501067 11044 21072 56022 =
2018-01-20 05:52 METAR KBML 201052Z AUTO 35003KT 6SM BR BKN120 M05/M07 A2951 RMK AO2 SLP010
                 T10501067 =
2018-01-20 04:52 METAR KBML 200952Z AUTO 00000KT 6SM BR CLR M07/M08 A2954 RMK AO2 SLP020
                 T10671078 =
2018-01-20 03:52 METAR KBML 200852Z AUTO 00000KT 6SM BR SCT075 BKN090 BKN110 M05/M06 A2957 RMK
                 AO2 UPB02E33 PRESFR SLP029 P0000 60000 T10501061 58031 =
2018-01-20 01:52 METAR KBML 200652Z AUTO 00000KT 5SM BR FEW060 M07/M08 A2966 RMK AO2 SLP063
                 T10721083 =
2018-01-20 00:52 METAR KBML 200552Z AUTO 00000KT 5SM BR BKN075 BKN090 M06/M07 A2966 RMK AO2
                 SLP063 T10561067 11039 21061 58032 =
2018-01-19 23:52 METAR KBML 200452Z AUTO 00000KT 6SM BR OVC100 M06/M07 A2970 RMK AO2 SLP076
                 T10561067 410281078 =
2018-01-19 23:06 METAR KBML 200406Z AUTO 00000KT 7SM OVC030 M04/M06 A2974 RMK AO2 T10441061 =
2018-01-19 22:52 METAR KBML 200352Z AUTO 00000KT 6SM BR OVC028 M04/M06 A2975 RMK AO2 SLP092
                 T10441056 =
2018-01-19 21:52 METAR KBML 200252Z AUTO 35003KT 7SM OVC026 M04/M06 A2976 RMK AO2 SLP096
                 T10391056 58013 =
2018-01-19 20:52 METAR KBML 200152Z AUTO 00000KT 8SM OVC024 M04/M06 A2977 RMK AO2 SLP101
                 T10441061 =
2018-01-19 19:52 METAR KBML 200052Z AUTO 36005KT 8SM OVC025 M04/M06 A2979 RMK AO2 SLP107
                 T10391056 =
2018-01-19 18:52 METAR KBML 192352Z AUTO 12003KT 8SM OVC025 M04/M06 A2980 RMK AO2 SLP111
                 T10441056 11028 21044 55009 =
2018-01-19 17:52 METAR KBML 192252Z AUTO 29003KT 8SM OVC027 M04/M06 A2980 RMK AO2 SLP108
                 T10391061 =
2018-01-19 16:52 METAR KBML 192152Z AUTO 00000KT 10SM BKN022 OVC030 M03/M06 A2981 RMK AO2 SLP111
                 T10331056 =
2018-01-19 15:52 METAR KBML 192052Z AUTO 00000KT 9SM OVC020 M03/M06 A2983 RMK AO2 SLP119
                 T10331061 53002 =
2018-01-19 14:52 METAR KBML 191952Z AUTO 00000KT 9SM OVC020 M03/M06 A2981 RMK AO2 SLP114
                 T10331061 =
2018-01-19 13:52 METAR KBML 191852Z AUTO 36004KT 9SM OVC018 M03/M07 A2983 RMK AO2 SLP118
                 T10331067 =
2018-01-19 12:52 METAR KBML 191752Z AUTO 00000KT 10SM OVC022 M03/M07 A2982 RMK AO2 SLP118
                 T10331067 11028 21072 58015 =
2018-01-19 11:52 METAR KBML 191652Z AUTO 00000KT 9SM OVC024 M03/M07 A2984 RMK AO2 SLP123
                 T10331067 =
2018-01-19 10:52 METAR KBML 191552Z AUTO 00000KT 7SM OVC026 M04/M07 A2986 RMK AO2 SLP129
                 T10441067 =
2018-01-19 10:19 METAR KBML 191519Z AUTO 00000KT 5SM BR FEW022 OVC029 M05/M07 A2986 RMK AO2
                 T10501067 =
2018-01-19 10:10 METAR KBML 191510Z AUTO 00000KT 6SM BR SCT021 OVC030 M05/M07 A2986 RMK AO2
                 T10501067 =

Support USWX by starting your Amazon purchase here.